sensor_id;sensor_type;location;lat;lon;timestamp;pressure;altitude;pressure_sealevel;temperature;humidity
85400;BME280;75813;48.758;9.290;2024-01-25T00:00:28;98550.88;;;8.42;71.61
85400;BME280;75813;48.758;9.290;2024-01-25T00:02:54;98550.31;;;8.45;71.34
85400;BME280;75813;48.758;9.290;2024-01-25T00:05:19;98553.50;;;8.47;71.22
85400;BME280;75813;48.758;9.290;2024-01-25T00:07:48;98551.16;;;8.40;71.74
85400;BME280;75813;48.758;9.290;2024-01-25T00:10:15;98546.25;;;8.47;71.83
85400;BME280;75813;48.758;9.290;2024-01-25T00:12:41;98535.00;;;8.45;71.99
85400;BME280;75813;48.758;9.290;2024-01-25T00:15:08;98529.91;;;8.44;71.86
85400;BME280;75813;48.758;9.290;2024-01-25T00:17:33;98532.31;;;8.45;71.75
85400;BME280;75813;48.758;9.290;2024-01-25T00:19:58;98529.25;;;8.52;71.52
85400;BME280;75813;48.758;9.290;2024-01-25T00:22:24;98520.91;;;8.53;71.96
85400;BME280;75813;48.758;9.290;2024-01-25T00:24:49;98532.31;;;8.45;72.30
85400;BME280;75813;48.758;9.290;2024-01-25T00:27:15;98529.34;;;8.47;72.64
85400;BME280;75813;48.758;9.290;2024-01-25T00:29:40;98525.00;;;8.51;72.37
85400;BME280;75813;48.758;9.290;2024-01-25T00:32:05;98518.50;;;8.52;72.04
85400;BME280;75813;48.758;9.290;2024-01-25T00:34:32;98534.13;;;8.50;72.34
85400;BME280;75813;48.758;9.290;2024-01-25T00:36:57;98524.19;;;8.50;72.31
85400;BME280;75813;48.758;9.290;2024-01-25T00:39:23;98533.31;;;8.49;73.43
85400;BME280;75813;48.758;9.290;2024-01-25T00:41:51;98530.63;;;8.49;73.67
85400;BME280;75813;48.758;9.290;2024-01-25T00:44:17;98521.50;;;8.50;73.48
85400;BME280;75813;48.758;9.290;2024-01-25T00:46:43;98518.81;;;8.50;73.99
85400;BME280;75813;48.758;9.290;2024-01-25T00:49:08;98528.22;;;8.48;74.09
85400;BME280;75813;48.758;9.290;2024-01-25T00:51:35;98529.03;;;8.48;73.85
85400;BME280;75813;48.758;9.290;2024-01-25T00:54:01;98532.72;;;8.52;74.17
85400;BME280;75813;48.758;9.290;2024-01-25T00:56:28;98520.91;;;8.53;74.09
85400;BME280;75813;48.758;9.290;2024-01-25T00:58:53;98514.75;;;8.53;74.51
85400;BME280;75813;48.758;9.290;2024-01-25T01:01:21;98511.56;;;8.51;74.99
85400;BME280;75813;48.758;9.290;2024-01-25T01:03:48;98520.69;;;8.50;74.93
85400;BME280;75813;48.758;9.290;2024-01-25T01:06:19;98512.06;;;8.53;75.31
85400;BME280;75813;48.758;9.290;2024-01-25T01:08:46;98511.84;;;8.49;74.98
85400;BME280;75813;48.758;9.290;2024-01-25T01:11:11;98508.38;;;8.49;75.15
85400;BME280;75813;48.758;9.290;2024-01-25T01:13:36;98510.56;;;8.47;75.39
85400;BME280;75813;48.758;9.290;2024-01-25T01:16:02;98497.13;;;8.47;75.29
85400;BME280;75813;48.758;9.290;2024-01-25T01:18:28;98499.31;;;8.45;75.30
85400;BME280;75813;48.758;9.290;2024-01-25T01:20:53;98496.03;;;8.48;75.28
85400;BME280;75813;48.758;9.290;2024-01-25T01:23:18;98498.16;;;8.51;75.30
85400;BME280;75813;48.758;9.290;2024-01-25T01:25:44;98487.47;;;8.46;76.09
85400;BME280;75813;48.758;9.290;2024-01-25T01:28:09;98485.59;;;8.46;75.61
85400;BME280;75813;48.758;9.290;2024-01-25T01:30:34;98498.22;;;8.46;75.70
85400;BME280;75813;48.758;9.290;2024-01-25T01:33:00;98478.63;;;8.45;75.24
85400;BME280;75813;48.758;9.290;2024-01-25T01:35:25;98500.63;;;8.47;75.87
85400;BME280;75813;48.758;9.290;2024-01-25T01:37:50;98500.63;;;8.47;75.38
85400;BME280;75813;48.758;9.290;2024-01-25T01:40:16;98488.78;;;8.48;74.99
85400;BME280;75813;48.758;9.290;2024-01-25T01:42:41;98482.31;;;8.49;74.86
85400;BME280;75813;48.758;9.290;2024-01-25T01:45:07;98480.53;;;8.45;75.40
85400;BME280;75813;48.758;9.290;2024-01-25T01:47:36;98485.59;;;8.46;74.95
85400;BME280;75813;48.758;9.290;2024-01-25T01:50:01;98488.28;;;8.46;75.42
85400;BME280;75813;48.758;9.290;2024-01-25T01:52:27;98487.47;;;8.46;75.15
85400;BME280;75813;48.758;9.290;2024-01-25T01:54:53;98485.59;;;8.46;75.36
85400;BME280;75813;48.758;9.290;2024-01-25T01:57:19;98493.94;;;8.45;75.85
85400;BME280;75813;48.758;9.290;2024-01-25T01:59:44;98484.06;;;8.40;75.41
85400;BME280;75813;48.758;9.290;2024-01-25T02:02:11;98488.09;;;8.43;74.91
85400;BME280;75813;48.758;9.290;2024-01-25T02:04:36;98489.16;;;8.42;75.17
85400;BME280;75813;48.758;9.290;2024-01-25T02:07:01;98506.28;;;8.46;75.25
85400;BME280;75813;48.758;9.290;2024-01-25T02:09:27;98493.22;;;8.39;74.97
85400;BME280;75813;48.758;9.290;2024-01-25T02:12:02;98494.00;;;8.40;75.26
85400;BME280;75813;48.758;9.290;2024-01-25T02:14:28;98483.38;;;8.35;75.45
85400;BME280;75813;48.758;9.290;2024-01-25T02:16:54;98489.25;;;8.37;74.87
85400;BME280;75813;48.758;9.290;2024-01-25T02:19:19;98486.06;;;8.35;74.47
85400;BME280;75813;48.758;9.290;2024-01-25T02:21:44;98495.47;;;8.32;74.61
85400;BME280;75813;48.758;9.290;2024-01-25T02:24:10;98477.50;;;8.32;74.46
85400;BME280;75813;48.758;9.290;2024-01-25T02:26:36;98480.97;;;8.33;74.47
85400;BME280;75813;48.758;9.290;2024-01-25T02:29:02;98476.47;;;8.28;74.66
85400;BME280;75813;48.758;9.290;2024-01-25T02:31:30;98470.88;;;8.25;74.38
85400;BME280;75813;48.758;9.290;2024-01-25T02:33:55;98490.72;;;8.29;74.34
85400;BME280;75813;48.758;9.290;2024-01-25T02:36:22;98491.25;;;8.26;74.18
85400;BME280;75813;48.758;9.290;2024-01-25T02:38:47;98486.97;;;8.25;74.05
85400;BME280;75813;48.758;9.290;2024-01-25T02:41:13;98495.31;;;8.23;73.72
85400;BME280;75813;48.758;9.290;2024-01-25T02:43:38;98489.16;;;8.23;73.83
85400;BME280;75813;48.758;9.290;2024-01-25T02:46:03;98491.81;;;8.23;73.81
85400;BME280;75813;48.758;9.290;2024-01-25T02:48:30;98487.06;;;8.20;73.95
85400;BME280;75813;48.758;9.290;2024-01-25T02:50:55;98492.34;;;8.25;74.24
85400;BME280;75813;48.758;9.290;2024-01-25T02:53:21;98499.00;;;8.27;74.00
85400;BME280;75813;48.758;9.290;2024-01-25T02:55:46;98493.44;;;8.24;73.58
85400;BME280;75813;48.758;9.290;2024-01-25T02:58:11;98496.69;;;8.21;73.51
85400;BME280;75813;48.758;9.290;2024-01-25T03:00:37;98499.88;;;8.23;74.06
85400;BME280;75813;48.758;9.290;2024-01-25T03:03:02;98495.38;;;8.18;74.73
85400;BME280;75813;48.758;9.290;2024-01-25T03:05:28;98494.31;;;8.19;74.82
85400;BME280;75813;48.758;9.290;2024-01-25T03:07:53;98503.44;;;8.18;74.61
85400;BME280;75813;48.758;9.290;2024-01-25T03:10:19;98500.75;;;8.18;74.36
85400;BME280;75813;48.758;9.290;2024-01-25T03:12:45;98511.00;;;8.16;75.23
85400;BME280;75813;48.758;9.290;2024-01-25T03:15:11;98505.69;;;8.11;75.41
85400;BME280;75813;48.758;9.290;2024-01-25T03:17:37;98504.41;;;8.09;75.29
85400;BME280;75813;48.758;9.290;2024-01-25T03:20:02;98509.25;;;8.07;75.20
85400;BME280;75813;48.758;9.290;2024-01-25T03:22:28;98519.16;;;8.06;75.61
85400;BME280;75813;48.758;9.290;2024-01-25T03:24:53;98513.59;;;8.03;75.76
85400;BME280;75813;48.758;9.290;2024-01-25T03:27:18;98507.94;;;8.04;75.55
85400;BME280;75813;48.758;9.290;2024-01-25T03:29:44;98512.72;;;8.07;75.44
85400;BME280;75813;48.758;9.290;2024-01-25T03:32:09;98518.09;;;8.07;75.18
85400;BME280;75813;48.758;9.290;2024-01-25T03:34:35;98514.59;;;8.07;75.79
85400;BME280;75813;48.758;9.290;2024-01-25T03:37:00;98520.28;;;8.05;75.78
85400;BME280;75813;48.758;9.290;2024-01-25T03:39:25;98531.56;;;8.02;75.90
85400;BME280;75813;48.758;9.290;2024-01-25T03:41:51;98537.44;;;8.04;75.96
85400;BME280;75813;48.758;9.290;2024-01-25T03:44:16;98535.84;;;8.03;75.85
85400;BME280;75813;48.758;9.290;2024-01-25T03:46:41;98539.13;;;8.00;76.29
85400;BME280;75813;48.758;9.290;2024-01-25T03:49:07;98546.41;;;7.95;76.05
85400;BME280;75813;48.758;9.290;2024-01-25T03:51:32;98543.47;;;7.96;76.33
85400;BME280;75813;48.758;9.290;2024-01-25T03:53:57;98566.22;;;7.99;76.57
85400;BME280;75813;48.758;9.290;2024-01-25T03:56:23;98541.91;;;7.90;76.74
85400;BME280;75813;48.758;9.290;2024-01-25T03:58:49;98557.16;;;7.95;76.60
85400;BME280;75813;48.758;9.290;2024-01-25T04:01:15;98548.88;;;7.91;76.53
85400;BME280;75813;48.758;9.290;2024-01-25T04:03:40;98568.19;;;7.93;77.04
85400;BME280;75813;48.758;9.290;2024-01-25T04:06:06;98562.34;;;7.86;76.72
85400;BME280;75813;48.758;9.290;2024-01-25T04:08:31;98552.16;;;7.88;77.00
85400;BME280;75813;48.758;9.290;2024-01-25T04:10:57;98555.69;;;7.83;76.74
85400;BME280;75813;48.758;9.290;2024-01-25T04:13:23;98563.22;;;7.81;77.17
85400;BME280;75813;48.758;9.290;2024-01-25T04:15:48;98557.34;;;7.79;77.47
85400;BME280;75813;48.758;9.290;2024-01-25T04:18:13;98567.56;;;7.77;77.29
85400;BME280;75813;48.758;9.290;2024-01-25T04:20:41;98571.34;;;7.76;77.23
85400;BME280;75813;48.758;9.290;2024-01-25T04:23:06;98564.59;;;7.79;77.07
85400;BME280;75813;48.758;9.290;2024-01-25T04:25:32;98563.06;;;7.73;77.64
85400;BME280;75813;48.758;9.290;2024-01-25T04:27:57;98566.25;;;7.75;77.29
85400;BME280;75813;48.758;9.290;2024-01-25T04:30:23;98573.78;;;7.73;77.62
85400;BME280;75813;48.758;9.290;2024-01-25T04:32:48;98571.09;;;7.73;77.32
85400;BME280;75813;48.758;9.290;2024-01-25T04:35:13;98572.47;;;7.70;77.57
85400;BME280;75813;48.758;9.290;2024-01-25T04:37:39;98575.22;;;7.65;77.72
85400;BME280;75813;48.758;9.290;2024-01-25T04:40:05;98563.69;;;7.65;77.73
85400;BME280;75813;48.758;9.290;2024-01-25T04:42:31;98578.63;;;7.71;77.08
85400;BME280;75813;48.758;9.290;2024-01-25T04:44:56;98570.59;;;7.71;77.04
85400;BME280;75813;48.758;9.290;2024-01-25T04:47:22;98567.97;;;7.66;76.99
85400;BME280;75813;48.758;9.290;2024-01-25T04:49:47;98574.72;;;7.63;77.42
85400;BME280;75813;48.758;9.290;2024-01-25T04:52:13;98580.06;;;7.63;77.03
85400;BME280;75813;48.758;9.290;2024-01-25T04:54:38;98581.94;;;7.63;77.47
85400;BME280;75813;48.758;9.290;2024-01-25T04:57:03;98583.03;;;7.62;77.37
85400;BME280;75813;48.758;9.290;2024-01-25T04:59:32;98590.78;;;7.63;77.15
85400;BME280;75813;48.758;9.290;2024-01-25T05:01:58;98592.66;;;7.63;76.76
85400;BME280;75813;48.758;9.290;2024-01-25T05:04:23;98597.50;;;7.61;76.40
85400;BME280;75813;48.758;9.290;2024-01-25T05:06:48;98607.19;;;7.57;76.60
85400;BME280;75813;48.758;9.290;2024-01-25T05:09:14;98598.59;;;7.60;75.12
85400;BME280;75813;48.758;9.290;2024-01-25T05:11:40;98592.16;;;7.61;75.52
85400;BME280;75813;48.758;9.290;2024-01-25T05:14:05;98601.25;;;7.60;75.25
85400;BME280;75813;48.758;9.290;2024-01-25T05:16:31;98613.09;;;7.59;75.19
85400;BME280;75813;48.758;9.290;2024-01-25T05:18:56;98607.03;;;7.48;74.98
85400;BME280;75813;48.758;9.290;2024-01-25T05:21:21;98603.84;;;7.46;74.75
85400;BME280;75813;48.758;9.290;2024-01-25T05:23:47;98597.47;;;7.42;74.59
85400;BME280;75813;48.758;9.290;2024-01-25T05:26:12;98603.66;;;7.37;74.37
85400;BME280;75813;48.758;9.290;2024-01-25T05:28:38;98602.84;;;7.37;74.08
85400;BME280;75813;48.758;9.290;2024-01-25T05:31:03;98610.09;;;7.36;74.61
85400;BME280;75813;48.758;9.290;2024-01-25T05:33:29;98612.31;;;7.29;74.74
85400;BME280;75813;48.758;9.290;2024-01-25T05:35:54;98612.88;;;7.26;75.24
85400;BME280;75813;48.758;9.290;2024-01-25T05:38:19;98619.38;;;7.20;75.57
85400;BME280;75813;48.758;9.290;2024-01-25T05:40:45;98619.72;;;7.14;75.51
85400;BME280;75813;48.758;9.290;2024-01-25T05:43:10;98620.25;;;7.11;75.43
85400;BME280;75813;48.758;9.290;2024-01-25T05:45:36;98623.75;;;7.06;75.26
85400;BME280;75813;48.758;9.290;2024-01-25T05:48:01;98625.13;;;7.04;75.68
85400;BME280;75813;48.758;9.290;2024-01-25T05:50:26;98631.88;;;7.01;75.39
85400;BME280;75813;48.758;9.290;2024-01-25T05:52:51;98633.50;;;6.97;75.27
85400;BME280;75813;48.758;9.290;2024-01-25T05:55:17;98625.19;;;6.93;75.44
85400;BME280;75813;48.758;9.290;2024-01-25T05:57:43;98626.56;;;6.91;75.23
85400;BME280;75813;48.758;9.290;2024-01-25T06:00:12;98629.28;;;6.86;75.18
85400;BME280;75813;48.758;9.290;2024-01-25T06:02:38;98628.22;;;6.87;74.98
85400;BME280;75813;48.758;9.290;2024-01-25T06:05:04;98629.84;;;6.83;75.42
85400;BME280;75813;48.758;9.290;2024-01-25T06:07:29;98624.03;;;6.76;75.42
85400;BME280;75813;48.758;9.290;2024-01-25T06:09:55;98625.13;;;6.70;75.19
85400;BME280;75813;48.758;9.290;2024-01-25T06:12:20;98626.78;;;6.61;75.84
85400;BME280;75813;48.758;9.290;2024-01-25T06:14:45;98630.03;;;6.58;75.81
85400;BME280;75813;48.758;9.290;2024-01-25T06:17:11;98633.78;;;6.57;75.62
85400;BME280;75813;48.758;9.290;2024-01-25T06:19:36;98636.69;;;6.60;75.83
85400;BME280;75813;48.758;9.290;2024-01-25T06:22:02;98633.53;;;6.53;76.17
85400;BME280;75813;48.758;9.290;2024-01-25T06:24:28;98627.47;;;6.42;76.11
85400;BME280;75813;48.758;9.290;2024-01-25T06:26:54;98641.34;;;6.44;76.14
85400;BME280;75813;48.758;9.290;2024-01-25T06:29:19;98634.69;;;6.42;76.71
85400;BME280;75813;48.758;9.290;2024-01-25T06:31:45;98638.69;;;6.39;76.46
85400;BME280;75813;48.758;9.290;2024-01-25T06:34:10;98650.53;;;6.28;76.64
85400;BME280;75813;48.758;9.290;2024-01-25T06:36:36;98650.56;;;6.18;77.67
85400;BME280;75813;48.758;9.290;2024-01-25T06:39:01;98637.72;;;6.20;78.27
85400;BME280;75813;48.758;9.290;2024-01-25T06:41:28;98642.84;;;6.17;78.43
85400;BME280;75813;48.758;9.290;2024-01-25T06:43:53;98646.09;;;6.09;78.64
85400;BME280;75813;48.758;9.290;2024-01-25T06:46:18;98647.91;;;6.18;79.76
85400;BME280;75813;48.758;9.290;2024-01-25T06:48:44;98652.75;;;6.11;79.59
85400;BME280;75813;48.758;9.290;2024-01-25T06:51:09;98642.06;;;6.06;79.98
85400;BME280;75813;48.758;9.290;2024-01-25T06:53:34;98664.28;;;6.01;79.47
85400;BME280;75813;48.758;9.290;2024-01-25T06:56:00;98662.72;;;5.95;79.81
85400;BME280;75813;48.758;9.290;2024-01-25T06:58:25;98670.47;;;5.92;80.08
85400;BME280;75813;48.758;9.290;2024-01-25T07:00:50;98680.06;;;5.93;80.21
85400;BME280;75813;48.758;9.290;2024-01-25T07:03:18;98673.97;;;5.87;80.80
85400;BME280;75813;48.758;9.290;2024-01-25T07:05:43;98673.94;;;5.92;79.96
85400;BME280;75813;48.758;9.290;2024-01-25T07:08:08;98689.16;;;5.82;80.18
85400;BME280;75813;48.758;9.290;2024-01-25T07:10:38;98682.25;;;5.76;80.52
85400;BME280;75813;48.758;9.290;2024-01-25T07:13:04;98687.59;;;5.71;80.90
85400;BME280;75813;48.758;9.290;2024-01-25T07:15:29;98681.19;;;5.67;81.00
85400;BME280;75813;48.758;9.290;2024-01-25T07:17:54;98676.63;;;5.72;81.67
85400;BME280;75813;48.758;9.290;2024-01-25T07:20:20;98675.00;;;5.76;81.57
85400;BME280;75813;48.758;9.290;2024-01-25T07:22:45;98666.19;;;5.86;81.18
85400;BME280;75813;48.758;9.290;2024-01-25T07:25:10;98671.53;;;5.96;81.43
85400;BME280;75813;48.758;9.290;2024-01-25T07:27:36;98671.53;;;6.01;81.03
85400;BME280;75813;48.758;9.290;2024-01-25T07:30:01;98672.59;;;5.95;80.98
85400;BME280;75813;48.758;9.290;2024-01-25T07:32:27;98672.59;;;5.90;81.12
85400;BME280;75813;48.758;9.290;2024-01-25T07:34:52;98684.66;;;5.87;81.06
85400;BME280;75813;48.758;9.290;2024-01-25T07:37:19;98675.81;;;5.82;81.65
85400;BME280;75813;48.758;9.290;2024-01-25T07:39:44;98683.31;;;5.75;81.65
85400;BME280;75813;48.758;9.290;2024-01-25T07:42:10;98668.34;;;5.74;82.24
85400;BME280;75813;48.758;9.290;2024-01-25T07:44:36;98678.50;;;5.77;82.04
85400;BME280;75813;48.758;9.290;2024-01-25T07:47:02;98669.41;;;5.83;81.74
85400;BME280;75813;48.758;9.290;2024-01-25T07:49:27;98671.53;;;5.81;81.54
85400;BME280;75813;48.758;9.290;2024-01-25T07:51:52;98674.50;;;5.79;81.66
85400;BME280;75813;48.758;9.290;2024-01-25T07:54:18;98672.88;;;5.73;81.66
85400;BME280;75813;48.758;9.290;2024-01-25T07:56:43;98683.59;;;5.68;81.70
85400;BME280;75813;48.758;9.290;2024-01-25T07:59:08;98689.47;;;5.65;81.79
85400;BME280;75813;48.758;9.290;2024-01-25T08:01:34;98690.28;;;5.61;81.76
85400;BME280;75813;48.758;9.290;2024-01-25T08:03:59;98687.63;;;5.61;82.11
85400;BME280;75813;48.758;9.290;2024-01-25T08:06:25;98688.69;;;5.60;81.95
85400;BME280;75813;48.758;9.290;2024-01-25T08:08:51;98686.00;;;5.65;81.69
85400;BME280;75813;48.758;9.290;2024-01-25T08:11:17;98677.97;;;5.70;82.46
85400;BME280;75813;48.758;9.290;2024-01-25T08:13:44;98668.06;;;5.90;81.37
85400;BME280;75813;48.758;9.290;2024-01-25T08:16:10;98673.09;;;5.97;80.77
85400;BME280;75813;48.758;9.290;2024-01-25T08:18:36;98663.50;;;5.96;81.12
85400;BME280;75813;48.758;9.290;2024-01-25T08:21:02;98668.03;;;6.00;80.58
85400;BME280;75813;48.758;9.290;2024-01-25T08:23:27;98676.88;;;6.01;80.60
85400;BME280;75813;48.758;9.290;2024-01-25T08:25:52;98693.41;;;6.03;80.86
85400;BME280;75813;48.758;9.290;2024-01-25T08:28:18;98691.81;;;5.97;80.73
85400;BME280;75813;48.758;9.290;2024-01-25T08:30:44;98704.13;;;5.98;80.47
85400;BME280;75813;48.758;9.290;2024-01-25T08:33:10;98702.00;;;5.95;80.39
85400;BME280;75813;48.758;9.290;2024-01-25T08:35:35;98698.25;;;5.96;80.11
85400;BME280;75813;48.758;9.290;2024-01-25T08:38:00;98696.66;;;5.95;79.96
85400;BME280;75813;48.758;9.290;2024-01-25T08:40:26;98710.81;;;6.00;80.29
85400;BME280;75813;48.758;9.290;2024-01-25T08:42:51;98708.16;;;6.00;80.51
85400;BME280;75813;48.758;9.290;2024-01-25T08:45:16;98703.06;;;6.04;80.14
85400;BME280;75813;48.758;9.290;2024-01-25T08:47:44;98705.44;;;6.06;79.66
85400;BME280;75813;48.758;9.290;2024-01-25T08:50:10;98698.19;;;6.11;79.51
85400;BME280;75813;48.758;9.290;2024-01-25T08:52:37;98711.81;;;6.20;79.91
85400;BME280;75813;48.758;9.290;2024-01-25T08:55:04;98711.78;;;6.30;79.04
85400;BME280;75813;48.758;9.290;2024-01-25T08:57:30;98727.28;;;6.33;79.06
85400;BME280;75813;48.758;9.290;2024-01-25T08:59:55;98731.81;;;6.32;78.55
85400;BME280;75813;48.758;9.290;2024-01-25T09:02:26;98736.91;;;6.34;78.86
85400;BME280;75813;48.758;9.290;2024-01-25T09:04:54;98732.88;;;6.36;77.91
85400;BME280;75813;48.758;9.290;2024-01-25T09:07:19;98737.88;;;6.53;77.59
85400;BME280;75813;48.758;9.290;2024-01-25T09:09:45;98730.63;;;6.64;76.60
85400;BME280;75813;48.758;9.290;2024-01-25T09:12:10;98726.84;;;6.70;76.04
85400;BME280;75813;48.758;9.290;2024-01-25T09:14:38;98732.16;;;6.75;76.51
85400;BME280;75813;48.758;9.290;2024-01-25T09:17:03;98739.63;;;6.83;75.10
85400;BME280;75813;48.758;9.290;2024-01-25T09:19:28;98742.13;;;7.08;75.76
85400;BME280;75813;48.758;9.290;2024-01-25T09:21:54;98748.00;;;7.10;75.10
85400;BME280;75813;48.758;9.290;2024-01-25T09:24:20;98744.34;;;7.01;75.85
85400;BME280;75813;48.758;9.290;2024-01-25T09:26:46;98756.63;;;7.02;75.76
85400;BME280;75813;48.758;9.290;2024-01-25T09:29:11;98748.59;;;7.02;76.89
85400;BME280;75813;48.758;9.290;2024-01-25T09:31:36;98751.25;;;7.07;76.76
85400;BME280;75813;48.758;9.290;2024-01-25T09:34:02;98758.09;;;7.23;76.18
85400;BME280;75813;48.758;9.290;2024-01-25T09:36:27;98757.47;;;7.36;73.67
85400;BME280;75813;48.758;9.290;2024-01-25T09:38:52;98753.16;;;7.40;73.05
85400;BME280;75813;48.758;9.290;2024-01-25T09:41:18;98751.47;;;7.50;74.10
85400;BME280;75813;48.758;9.290;2024-01-25T09:43:43;98757.34;;;7.52;72.99
85400;BME280;75813;48.758;9.290;2024-01-25T09:46:13;98760.75;;;7.62;72.79
85400;BME280;75813;48.758;9.290;2024-01-25T09:48:38;98770.09;;;7.65;70.46
85400;BME280;75813;48.758;9.290;2024-01-25T09:51:06;98779.97;;;7.69;72.05
85400;BME280;75813;48.758;9.290;2024-01-25T09:53:32;98769.13;;;7.84;71.83
85400;BME280;75813;48.758;9.290;2024-01-25T09:56:11;98764.31;;;7.81;70.71
85400;BME280;75813;48.758;9.290;2024-01-25T09:58:40;98763.19;;;7.88;70.37
85400;BME280;75813;48.758;9.290;2024-01-25T10:01:08;98763.66;;;7.95;69.94
85400;BME280;75813;48.758;9.290;2024-01-25T10:03:34;98755.78;;;8.03;71.33
85400;BME280;75813;48.758;9.290;2024-01-25T10:06:00;98763.00;;;8.08;70.52
85400;BME280;75813;48.758;9.290;2024-01-25T10:08:26;98754.03;;;8.17;70.34
85400;BME280;75813;48.758;9.290;2024-01-25T10:10:51;98751.59;;;8.21;71.03
85400;BME280;75813;48.758;9.290;2024-01-25T10:13:19;98760.09;;;8.28;69.82
85400;BME280;75813;48.758;9.290;2024-01-25T10:15:45;98776.81;;;8.20;69.80
85400;BME280;75813;48.758;9.290;2024-01-25T10:18:13;98770.41;;;8.16;70.05
85400;BME280;75813;48.758;9.290;2024-01-25T10:20:42;98762.63;;;8.14;69.45
85400;BME280;75813;48.758;9.290;2024-01-25T10:23:08;98759.97;;;8.14;69.19
85400;BME280;75813;48.758;9.290;2024-01-25T10:25:35;98748.84;;;8.26;68.71
85400;BME280;75813;48.758;9.290;2024-01-25T10:28:02;98759.22;;;8.38;67.94
85400;BME280;75813;48.758;9.290;2024-01-25T10:30:31;98750.56;;;8.41;67.48
85400;BME280;75813;48.758;9.290;2024-01-25T10:32:57;98746.28;;;8.40;68.25
85400;BME280;75813;48.758;9.290;2024-01-25T10:35:24;98738.88;;;8.31;69.18
85400;BME280;75813;48.758;9.290;2024-01-25T10:37:51;98739.63;;;8.37;68.20
85400;BME280;75813;48.758;9.290;2024-01-25T10:40:18;98747.63;;;8.42;67.83
85400;BME280;75813;48.758;9.290;2024-01-25T10:42:43;98749.50;;;8.42;67.98
85400;BME280;75813;48.758;9.290;2024-01-25T10:45:09;98748.06;;;8.49;69.08
85400;BME280;75813;48.758;9.290;2024-01-25T10:47:35;98735.22;;;8.46;67.50
85400;BME280;75813;48.758;9.290;2024-01-25T10:50:01;98743.72;;;8.53;68.47
85400;BME280;75813;48.758;9.290;2024-01-25T10:52:28;98730.50;;;8.57;67.84
85400;BME280;75813;48.758;9.290;2024-01-25T10:54:54;98722.91;;;8.64;68.09
85400;BME280;75813;48.758;9.290;2024-01-25T10:57:19;98715.00;;;8.72;67.56
85400;BME280;75813;48.758;9.290;2024-01-25T10:59:45;98726.53;;;8.73;67.71
85400;BME280;75813;48.758;9.290;2024-01-25T11:02:11;98721.75;;;8.70;67.61
85400;BME280;75813;48.758;9.290;2024-01-25T11:04:37;98715.56;;;8.69;68.61
85400;BME280;75813;48.758;9.290;2024-01-25T11:07:08;98722.03;;;8.68;68.27
85400;BME280;75813;48.758;9.290;2024-01-25T11:09:35;98721.25;;;8.68;68.17
85400;BME280;75813;48.758;9.290;2024-01-25T11:12:11;98721.63;;;8.80;67.94
85400;BME280;75813;48.758;9.290;2024-01-25T11:14:37;98705.34;;;8.90;68.48
85400;BME280;75813;48.758;9.290;2024-01-25T11:17:22;98704.72;;;8.80;68.10
85400;BME280;75813;48.758;9.290;2024-01-25T11:19:49;98698.63;;;8.93;67.89
85400;BME280;75813;48.758;9.290;2024-01-25T11:22:15;98694.47;;;9.00;67.99
85400;BME280;75813;48.758;9.290;2024-01-25T11:24:41;98691.19;;;9.03;66.82
85400;BME280;75813;48.758;9.290;2024-01-25T11:27:09;98677.16;;;9.06;66.83
85400;BME280;75813;48.758;9.290;2024-01-25T11:29:35;98681.00;;;9.19;67.39
85400;BME280;75813;48.758;9.290;2024-01-25T11:32:03;98684.00;;;9.31;66.65
85400;BME280;75813;48.758;9.290;2024-01-25T11:34:29;98678.22;;;9.24;65.89
85400;BME280;75813;48.758;9.290;2024-01-25T11:36:56;98667.94;;;9.12;66.33
85400;BME280;75813;48.758;9.290;2024-01-25T11:39:23;98669.75;;;9.17;67.89
85400;BME280;75813;48.758;9.290;2024-01-25T11:41:51;98666.66;;;9.10;67.73
85400;BME280;75813;48.758;9.290;2024-01-25T11:44:16;98664.47;;;9.12;67.62
85400;BME280;75813;48.758;9.290;2024-01-25T11:46:42;98645.06;;;9.15;67.61
85400;BME280;75813;48.758;9.290;2024-01-25T11:49:07;98657.69;;;9.14;67.63
85400;BME280;75813;48.758;9.290;2024-01-25T11:51:33;98661.69;;;9.17;67.76
85400;BME280;75813;48.758;9.290;2024-01-25T11:53:59;98657.69;;;9.14;67.83
85400;BME280;75813;48.758;9.290;2024-01-25T11:56:28;98662.63;;;9.26;67.38
85400;BME280;75813;48.758;9.290;2024-01-25T11:58:54;98667.13;;;9.44;65.86
85400;BME280;75813;48.758;9.290;2024-01-25T12:01:23;98662.88;;;9.43;66.63
85400;BME280;75813;48.758;9.290;2024-01-25T12:03:49;98666.44;;;9.52;66.28
85400;BME280;75813;48.758;9.290;2024-01-25T12:06:14;98658.63;;;9.69;64.88
85400;BME280;75813;48.758;9.290;2024-01-25T12:08:40;98652.28;;;9.93;64.72
85400;BME280;75813;48.758;9.290;2024-01-25T12:11:07;98651.75;;;9.91;63.63
85400;BME280;75813;48.758;9.290;2024-01-25T12:13:34;98654.06;;;9.84;64.06
85400;BME280;75813;48.758;9.290;2024-01-25T12:16:00;98647.56;;;9.98;64.07
85400;BME280;75813;48.758;9.290;2024-01-25T12:18:26;98639.69;;;10.02;64.72
85400;BME280;75813;48.758;9.290;2024-01-25T12:20:51;98635.81;;;9.94;63.70
85400;BME280;75813;48.758;9.290;2024-01-25T12:23:17;98636.94;;;9.93;63.25
85400;BME280;75813;48.758;9.290;2024-01-25T12:25:42;98644.78;;;9.90;63.92
85400;BME280;75813;48.758;9.290;2024-01-25T12:28:09;98629.63;;;9.94;63.64
85400;BME280;75813;48.758;9.290;2024-01-25T12:30:34;98636.53;;;9.73;63.50
85400;BME280;75813;48.758;9.290;2024-01-25T12:33:00;98635.81;;;9.67;63.82
85400;BME280;75813;48.758;9.290;2024-01-25T12:35:25;98626.56;;;9.59;65.17
85400;BME280;75813;48.758;9.290;2024-01-25T12:37:50;98620.56;;;9.62;64.58
85400;BME280;75813;48.758;9.290;2024-01-25T12:40:16;98615.78;;;9.59;64.64
85400;BME280;75813;48.758;9.290;2024-01-25T12:42:41;98616.09;;;9.58;63.71
85400;BME280;75813;48.758;9.290;2024-01-25T12:45:07;98617.84;;;9.49;64.76
85400;BME280;75813;48.758;9.290;2024-01-25T12:47:32;98619.44;;;9.36;66.64
85400;BME280;75813;48.758;9.290;2024-01-25T12:49:58;98612.06;;;9.42;66.40
85400;BME280;75813;48.758;9.290;2024-01-25T12:52:23;98609.31;;;9.74;63.87
85400;BME280;75813;48.758;9.290;2024-01-25T12:54:49;98614.09;;;9.91;63.63
85400;BME280;75813;48.758;9.290;2024-01-25T12:57:14;98608.72;;;9.91;63.47
85400;BME280;75813;48.758;9.290;2024-01-25T12:59:40;98594.25;;;10.00;63.43
85400;BME280;75813;48.758;9.290;2024-01-25T13:02:06;98596.72;;;10.10;62.98